Aérodrome :
LOGIN :

S'inscrire | Disclaimer

   EN    FR    IT 

 










Légende :    VFR   VFR Marginal   IFR   IFR Intensif   IFR Très Intensif
Visi : 
Plafond : 
>= 8 km
>= 3000ft
5 à 8 km
1000 à 3000 ft
1500m à 5 km
500 à 1000 ft
800 à 1500m
200 à 500 ft
< 800m
< 200 ft
Symboles :   Orages  Brouillard  Fortes neiges  Fortes précipitations  Vent > 20 kt
SIGMETs :   Divers  Orages  Givrage  Turbulence  Onde Orograph.  Cendres Volcan.






- Altitude de l'aérodrome : 362 ft
- Code IATA : WAW


EPWA - Warsaw Okecie

DERNIER METAR :
  • 230230Z 18003KT CAVOK 10/09 Q1013 NOSIG

METARs EXPIRÉS :
  • 230200Z 19004KT CAVOK 10/09 Q1014 NOSIG
  • 230130Z 18003KT 160V220 CAVOK 09/08 Q1014 NOSIG
  • 230100Z 20003KT 170V230 CAVOK 10/08 Q1014 NOSIG
  • 230030Z 20003KT 170V230 CAVOK 10/09 Q1014 NOSIG
  • 230000Z VRB02KT CAVOK 09/08 Q1014 NOSIG

TAF TAF EPWA
Valide du 23 à 03h jusqu'au 24 à 03h UTC


230230Z 2303/2403 19004KT CAVOK
PROB40
TEMPO 2308/2315 -RA BKN014
TEMPO 2315/2403 -RA BKN008 BKN012
PROB40 2323/2403 4500 BR



MET'MAP, la Météo Aéronautique d'un coup d'oeil ! - Copyright ORBIFLY Décembre 2007 - Disclaimer

ORBIFLY MET'MAP TEAM :

Programmation & Développement : Alexandra Zaïnal
Sur une idée originale de : Baudouin d'Aumeries
Assistance à la programmation : Marc-Olivier Méhu
Soutien technique & logistique : Manuel Goepfert

Contact : metmap@orbifly.com




SOURCES & CREDITS :

   NOAA